createdAt,value
2023-02-02T00:02:14.150Z,6.05
2023-02-02T00:04:42.753Z,5.82
2023-02-02T00:07:11.416Z,6.57
2023-02-02T00:09:40.261Z,6.18
2023-02-02T00:12:08.987Z,6.60
2023-02-02T00:14:37.759Z,5.75
2023-02-02T00:17:11.354Z,5.40
2023-02-02T00:19:39.950Z,5.15
2023-02-02T00:22:08.865Z,6.80
2023-02-02T00:24:37.521Z,5.45
2023-02-02T00:27:06.176Z,6.18
2023-02-02T00:29:34.936Z,6.60
2023-02-02T00:32:03.665Z,6.70
2023-02-02T00:34:33.663Z,6.40
2023-02-02T00:37:02.295Z,6.75
2023-02-02T00:39:30.864Z,6.65
2023-02-02T00:41:59.458Z,6.35
2023-02-02T00:44:45.482Z,6.40
2023-02-02T00:47:14.423Z,6.40
2023-02-02T00:49:44.541Z,6.20
2023-02-02T00:52:13.867Z,5.35
2023-02-02T00:54:42.658Z,6.15
2023-02-02T00:57:14.062Z,5.40
2023-02-02T00:59:42.745Z,5.97
2023-02-02T01:02:11.877Z,6.35
2023-02-02T01:04:41.091Z,7.10
2023-02-02T01:07:11.529Z,6.07
2023-02-02T01:09:40.181Z,8.23
2023-02-02T01:12:08.859Z,7.00
2023-02-02T01:14:37.480Z,10.65
2023-02-02T01:17:06.557Z,8.80
2023-02-02T01:19:35.356Z,9.32
2023-02-02T01:22:03.937Z,7.20
2023-02-02T01:24:34.112Z,5.72
2023-02-02T01:27:02.940Z,6.28
2023-02-02T01:29:33.329Z,6.15
2023-02-02T01:32:02.033Z,6.30
2023-02-02T01:34:30.655Z,6.55
2023-02-02T01:36:59.318Z,6.47
2023-02-02T01:39:28.017Z,6.20
2023-02-02T01:41:59.439Z,7.10
2023-02-02T01:45:05.460Z,6.93
2023-02-02T01:47:38.917Z,6.50
2023-02-02T01:50:09.787Z,6.35
2023-02-02T01:52:40.325Z,5.90
2023-02-02T01:55:13.657Z,6.45
2023-02-02T01:57:48.262Z,6.18
2023-02-02T02:00:18.528Z,6.10
2023-02-02T02:02:50.123Z,5.60
2023-02-02T02:05:27.319Z,5.28
2023-02-02T02:08:02.444Z,5.30
2023-02-02T02:10:31.228Z,4.45
2023-02-02T02:13:01.802Z,4.85
2023-02-02T02:15:59.132Z,3.85
2023-02-02T02:18:37.376Z,4.45
2023-02-02T02:21:48.089Z,3.80
2023-02-02T02:25:03.519Z,3.80
2023-02-02T02:28:18.021Z,3.92
2023-02-02T02:31:34.396Z,3.47
2023-02-02T02:34:12.922Z,3.17
2023-02-02T02:36:50.293Z,3.60
2023-02-02T02:39:24.390Z,3.50
2023-02-02T02:41:58.946Z,3.40
2023-02-02T02:44:29.517Z,3.50
2023-02-02T02:46:58.599Z,4.00
2023-02-02T02:49:29.152Z,3.42
2023-02-02T02:51:57.947Z,3.13
2023-02-02T02:57:28.534Z,3.20
2023-02-02T03:00:06.194Z,2.78
2023-02-02T03:02:44.844Z,3.30
2023-02-02T03:05:26.095Z,2.83
2023-02-02T03:08:04.665Z,2.50
2023-02-02T03:10:34.131Z,2.85
2023-02-02T03:13:02.985Z,2.95
2023-02-02T03:15:31.622Z,2.33
2023-02-02T03:18:00.372Z,2.20
2023-02-02T03:20:30.598Z,2.60
2023-02-02T03:22:59.356Z,2.47
2023-02-02T03:25:28.158Z,1.85
2023-02-02T03:27:56.894Z,2.30
2023-02-02T03:30:25.438Z,2.22
2023-02-02T03:32:54.431Z,2.78
2023-02-02T03:35:23.411Z,1.95
2023-02-02T03:37:54.044Z,2.60
2023-02-02T03:40:22.647Z,2.58
2023-02-02T03:42:51.193Z,2.42
2023-02-02T03:45:19.786Z,2.65
2023-02-02T03:47:48.461Z,2.53
2023-02-02T03:50:17.320Z,2.45
2023-02-02T03:52:45.824Z,2.67
2023-02-02T03:55:15.883Z,2.60
2023-02-02T03:57:44.429Z,2.30
2023-02-02T04:00:13.817Z,3.00
2023-02-02T04:02:42.399Z,2.67
2023-02-02T04:05:11.023Z,2.40
2023-02-02T04:07:39.551Z,2.60
2023-02-02T04:10:08.636Z,2.88
2023-02-02T04:12:38.544Z,3.70
2023-02-02T04:15:08.315Z,5.05
2023-02-02T04:20:06.425Z,5.10
2023-02-02T04:25:03.311Z,5.68
2023-02-02T04:27:34.142Z,5.57
2023-02-02T04:30:04.213Z,5.32
2023-02-02T04:32:32.775Z,5.40
2023-02-02T04:35:01.309Z,6.07
2023-02-02T04:37:32.470Z,4.80
2023-02-02T04:40:01.127Z,4.60
2023-02-02T04:42:32.323Z,4.85
2023-02-02T04:45:00.928Z,4.75
2023-02-02T04:47:31.226Z,4.43
2023-02-02T04:49:59.834Z,4.45
2023-02-02T04:52:28.376Z,4.53
2023-02-02T04:54:56.909Z,4.30
2023-02-02T04:57:25.470Z,4.32
2023-02-02T04:59:54.053Z,4.68
2023-02-02T05:02:22.568Z,4.25
2023-02-02T05:04:52.508Z,3.88
2023-02-02T05:07:21.081Z,4.10
2023-02-02T05:09:49.608Z,4.05
2023-02-02T05:12:18.162Z,4.10
2023-02-02T05:14:46.665Z,3.90
2023-02-02T05:17:15.180Z,4.15
2023-02-02T05:19:44.041Z,4.30
2023-02-02T05:22:13.953Z,5.20
2023-02-02T05:24:42.539Z,4.55
2023-02-02T05:27:11.189Z,5.65
2023-02-02T05:29:39.709Z,4.22
2023-02-02T05:32:08.749Z,4.65
2023-02-02T05:34:37.517Z,3.17
2023-02-02T05:37:06.212Z,4.40
2023-02-02T05:39:36.300Z,3.30
2023-02-02T05:42:05.155Z,3.47
2023-02-02T05:44:33.887Z,2.70
2023-02-02T05:47:02.489Z,3.20
2023-02-02T05:49:31.254Z,3.35
2023-02-02T05:52:00.654Z,2.80
2023-02-02T05:54:29.292Z,3.20
2023-02-02T05:57:01.340Z,2.95
2023-02-02T05:59:29.925Z,3.97
2023-02-02T06:01:58.452Z,2.80
2023-02-02T06:04:27.230Z,3.00
2023-02-02T06:06:55.796Z,3.90
2023-02-02T06:09:25.385Z,2.33
2023-02-02T06:11:54.010Z,4.00
2023-02-02T06:14:23.968Z,4.50
2023-02-02T06:16:52.584Z,3.78
2023-02-02T06:19:21.259Z,9.55
2023-02-02T06:21:49.953Z,3.88
2023-02-02T06:24:18.511Z,3.03
2023-02-02T06:26:47.093Z,3.20
2023-02-02T06:29:16.011Z,3.53
2023-02-02T06:31:45.993Z,3.53
2023-02-02T06:34:15.164Z,6.47
2023-02-02T06:36:43.959Z,6.85
2023-02-02T06:39:12.549Z,5.30
2023-02-02T06:41:41.626Z,3.20
2023-02-02T06:44:10.243Z,6.68
2023-02-02T06:46:38.859Z,6.30
2023-02-02T06:49:09.295Z,3.38
2023-02-02T06:51:37.916Z,2.70
2023-02-02T06:54:06.648Z,5.20
2023-02-02T06:56:35.314Z,4.53
2023-02-02T06:59:03.807Z,3.67
2023-02-02T07:01:32.631Z,4.78
2023-02-02T07:04:01.381Z,3.67
2023-02-02T07:06:31.394Z,6.50
2023-02-02T07:09:02.590Z,5.50
2023-02-02T07:11:35.234Z,6.50
2023-02-02T07:14:08.453Z,9.98
2023-02-02T07:16:37.053Z,7.03
2023-02-02T07:19:05.738Z,6.90
2023-02-02T07:21:36.703Z,10.52
2023-02-02T07:24:06.218Z,5.43
2023-02-02T07:26:36.698Z,5.32
2023-02-02T07:29:06.750Z,4.22
2023-02-02T07:31:36.895Z,7.65
2023-02-02T07:34:05.769Z,8.23
2023-02-02T07:36:36.144Z,3.25
2023-02-02T07:39:05.844Z,2.90
2023-02-02T07:41:36.688Z,3.30
2023-02-02T07:44:06.279Z,3.47
2023-02-02T07:46:35.519Z,3.45
2023-02-02T07:49:05.011Z,3.10
2023-02-02T07:51:33.547Z,4.85
2023-02-02T07:54:03.578Z,4.53
2023-02-02T07:56:32.234Z,3.85
2023-02-02T07:59:01.037Z,4.55
2023-02-02T08:01:30.267Z,3.30
2023-02-02T08:04:00.596Z,3.40
2023-02-02T08:06:32.271Z,3.35
2023-02-02T08:09:03.787Z,3.65
2023-02-02T08:11:33.007Z,3.20
2023-02-02T08:14:03.388Z,4.05
2023-02-02T08:16:33.200Z,3.58
2023-02-02T08:21:30.673Z,3.70
2023-02-02T08:23:59.220Z,3.45
2023-02-02T08:26:31.130Z,4.70
2023-02-02T08:29:01.698Z,3.13
2023-02-02T08:31:32.825Z,4.85
2023-02-02T08:34:01.744Z,5.00
2023-02-02T08:36:31.677Z,4.63
2023-02-02T08:39:03.269Z,3.10
2023-02-02T08:41:33.685Z,3.17
2023-02-02T08:44:02.242Z,4.40
2023-02-02T08:46:30.819Z,4.40
2023-02-02T08:49:00.157Z,3.63
2023-02-02T08:51:28.814Z,4.32
2023-02-02T08:53:57.343Z,4.15
2023-02-02T08:56:26.004Z,3.38
2023-02-02T08:58:58.361Z,5.22
2023-02-02T09:01:29.138Z,7.63
2023-02-02T09:03:59.580Z,13.38
2023-02-02T09:06:31.913Z,15.30
2023-02-02T09:09:00.974Z,11.80
2023-02-02T09:11:29.739Z,11.57
2023-02-02T09:14:01.251Z,27.85
2023-02-02T09:16:30.525Z,14.52
2023-02-02T09:18:59.814Z,38.15
2023-02-02T09:21:28.694Z,5.82
2023-02-02T09:23:57.280Z,5.10
2023-02-02T09:26:27.744Z,5.45
2023-02-02T09:28:58.430Z,2.85
2023-02-02T09:31:28.611Z,2.80
2023-02-02T09:33:57.353Z,3.25
2023-02-02T09:36:27.110Z,2.75
2023-02-02T09:38:55.816Z,3.38
2023-02-02T09:41:51.474Z,2.80
2023-02-02T09:44:34.030Z,3.38
2023-02-02T09:47:13.317Z,3.47
2023-02-02T09:49:53.266Z,3.53
2023-02-02T09:52:27.936Z,3.90
2023-02-02T09:55:01.912Z,3.78
2023-02-02T09:57:36.588Z,4.90
2023-02-02T10:00:07.073Z,4.15
2023-02-02T10:02:46.395Z,3.83
2023-02-02T10:05:18.424Z,4.22
2023-02-02T10:07:51.711Z,4.18
2023-02-02T10:10:26.294Z,3.80
2023-02-02T10:12:58.841Z,3.88
2023-02-02T10:15:38.521Z,4.00
2023-02-02T10:18:18.536Z,4.18
2023-02-02T10:20:52.583Z,4.40
2023-02-02T10:23:26.530Z,4.07
2023-02-02T10:26:01.923Z,4.70
2023-02-02T10:28:45.239Z,4.03
2023-02-02T10:31:23.591Z,3.60
2023-02-02T10:34:04.620Z,4.57
2023-02-02T10:36:44.386Z,3.72
2023-02-02T10:39:21.471Z,4.47
2023-02-02T10:42:01.200Z,3.90
2023-02-02T10:44:38.636Z,3.20
2023-02-02T10:47:13.386Z,3.22
2023-02-02T10:49:43.386Z,3.53
2023-02-02T10:52:18.814Z,3.28
2023-02-02T10:55:03.972Z,2.40
2023-02-02T10:57:50.084Z,2.88
2023-02-02T11:00:23.785Z,2.80
2023-02-02T11:02:53.837Z,2.80
2023-02-02T11:05:44.100Z,2.90
2023-02-02T11:08:17.766Z,2.67
2023-02-02T11:10:47.874Z,3.95
2023-02-02T11:13:22.982Z,2.88
2023-02-02T11:15:51.622Z,3.33
2023-02-02T11:18:31.122Z,2.65
2023-02-02T11:21:01.011Z,2.90
2023-02-02T11:26:00.693Z,2.73
2023-02-02T11:28:32.999Z,2.28
2023-02-02T11:31:01.994Z,2.30
2023-02-02T11:33:33.264Z,2.45
2023-02-02T11:36:05.450Z,2.50
2023-02-02T11:38:34.241Z,2.80
2023-02-02T11:41:07.218Z,2.90
2023-02-02T11:43:41.752Z,2.35
2023-02-02T11:46:20.883Z,2.95
2023-02-02T11:48:52.928Z,2.38
2023-02-02T11:51:26.316Z,2.75
2023-02-02T11:54:05.336Z,2.40
2023-02-02T11:56:35.614Z,2.03
2023-02-02T11:59:05.620Z,2.15
2023-02-02T12:01:36.415Z,2.95
2023-02-02T12:04:22.739Z,2.38
2023-02-02T12:06:52.900Z,2.38
2023-02-02T12:09:24.426Z,1.70
2023-02-02T12:12:03.358Z,2.38
2023-02-02T12:14:41.175Z,2.00
2023-02-02T12:17:33.170Z,1.73
2023-02-02T12:20:14.909Z,1.85
2023-02-02T12:22:59.818Z,1.95
2023-02-02T12:25:48.739Z,1.80
2023-02-02T12:28:31.001Z,2.08
2023-02-02T12:31:09.194Z,1.80
2023-02-02T12:33:46.452Z,1.50
2023-02-02T12:36:27.230Z,1.38
2023-02-02T12:39:30.184Z,1.40
2023-02-02T12:42:27.786Z,1.58
2023-02-02T12:45:17.099Z,2.17
2023-02-02T12:47:56.048Z,1.55
2023-02-02T12:50:32.120Z,1.20
2023-02-02T12:53:22.011Z,1.60
2023-02-02T12:55:58.535Z,1.67
2023-02-02T12:58:37.814Z,1.60
2023-02-02T13:01:21.524Z,0.80
2023-02-02T13:04:11.211Z,1.52
2023-02-02T13:07:12.051Z,1.25
2023-02-02T13:09:47.331Z,1.15
2023-02-02T13:12:21.864Z,1.05
2023-02-02T13:14:54.891Z,4.30
2023-02-02T13:17:30.302Z,3.30
2023-02-02T13:20:04.587Z,1.35
2023-02-02T13:22:37.666Z,1.95
2023-02-02T13:25:11.182Z,1.48
2023-02-02T13:27:42.972Z,1.30
2023-02-02T13:30:19.328Z,2.22
2023-02-02T13:32:49.492Z,2.22
2023-02-02T13:35:21.988Z,1.95
2023-02-02T13:37:56.119Z,4.72
2023-02-02T13:40:29.756Z,1.33
2023-02-02T13:43:10.058Z,2.10
2023-02-02T13:45:49.503Z,1.20
2023-02-02T13:48:26.483Z,1.52
2023-02-02T13:51:29.236Z,1.38
2023-02-02T13:54:14.270Z,1.42
2023-02-02T13:56:51.177Z,2.38
2023-02-02T13:59:42.800Z,3.53
2023-02-02T14:02:25.495Z,2.17
2023-02-02T14:04:56.588Z,1.80
2023-02-02T14:07:34.880Z,1.50
2023-02-02T14:10:04.512Z,1.98
2023-02-02T14:12:36.610Z,1.58
2023-02-02T14:15:10.056Z,1.70
2023-02-02T14:17:55.777Z,1.52
2023-02-02T14:20:43.437Z,1.83
2023-02-02T14:23:48.922Z,1.85
2023-02-02T14:26:21.921Z,1.77
2023-02-02T14:28:52.015Z,1.45
2023-02-02T14:31:44.479Z,1.27
2023-02-02T14:34:31.402Z,1.40
2023-02-02T14:37:40.216Z,1.33
2023-02-02T14:40:28.222Z,1.00
2023-02-02T14:43:25.366Z,1.33
2023-02-02T14:46:22.148Z,1.63
2023-02-02T14:49:11.686Z,1.17
2023-02-02T14:51:51.216Z,1.38
2023-02-02T14:54:25.909Z,1.23
2023-02-02T14:56:59.747Z,1.17
2023-02-02T14:59:32.284Z,1.55
2023-02-02T15:02:17.688Z,1.33
2023-02-02T15:04:48.366Z,1.10
2023-02-02T15:07:52.175Z,1.60
2023-02-02T15:10:54.687Z,1.48
2023-02-02T15:13:25.829Z,0.85
2023-02-02T15:16:05.651Z,1.15
2023-02-02T15:21:11.675Z,1.10
2023-02-02T15:23:44.959Z,0.80
2023-02-02T15:26:18.738Z,1.13
2023-02-02T15:28:53.055Z,1.40
2023-02-02T15:31:29.137Z,1.10
2023-02-02T15:34:01.205Z,1.05
2023-02-02T15:36:33.801Z,1.15
2023-02-02T15:39:05.447Z,1.08
2023-02-02T15:41:35.246Z,1.23
2023-02-02T15:44:19.129Z,2.00
2023-02-02T15:46:48.541Z,2.25
2023-02-02T15:49:35.116Z,2.13
2023-02-02T15:52:14.302Z,0.95
2023-02-02T15:54:52.973Z,1.03
2023-02-02T15:57:30.249Z,1.30
2023-02-02T15:59:59.275Z,0.80
2023-02-02T16:02:38.876Z,1.85
2023-02-02T16:05:25.864Z,1.10
2023-02-02T16:08:05.036Z,1.00
2023-02-02T16:10:34.510Z,1.00
2023-02-02T16:13:03.494Z,1.10
2023-02-02T16:15:33.193Z,1.17
2023-02-02T16:20:33.411Z,0.90
2023-02-02T16:23:06.237Z,1.00
2023-02-02T16:25:49.452Z,1.42
2023-02-02T16:28:22.032Z,1.00
2023-02-02T16:30:52.799Z,1.38
2023-02-02T16:33:35.683Z,1.00
2023-02-02T16:36:12.372Z,1.05
2023-02-02T16:38:42.758Z,1.10
2023-02-02T16:41:13.260Z,0.80
2023-02-02T16:43:43.648Z,1.13
2023-02-02T16:46:14.047Z,0.93
2023-02-02T16:48:45.125Z,1.25
2023-02-02T16:51:27.779Z,1.50
2023-02-02T16:54:12.269Z,1.30
2023-02-02T16:56:43.257Z,1.35
2023-02-02T16:59:20.320Z,0.90
2023-02-02T17:01:53.424Z,1.10
2023-02-02T17:04:26.046Z,1.55
2023-02-02T17:07:09.183Z,0.93
2023-02-02T17:09:41.162Z,0.88
2023-02-02T17:12:34.518Z,1.27
2023-02-02T17:15:24.884Z,0.70
2023-02-02T17:17:54.779Z,1.02
2023-02-02T17:20:23.589Z,1.38
2023-02-02T17:22:54.932Z,0.93
2023-02-02T17:25:29.533Z,1.02
2023-02-02T17:27:59.794Z,1.10
2023-02-02T17:30:30.584Z,0.82
2023-02-02T17:32:59.497Z,1.00
2023-02-02T17:35:37.238Z,1.30
2023-02-02T17:38:12.297Z,1.40
2023-02-02T17:40:42.251Z,0.90
2023-02-02T17:43:12.468Z,0.80
2023-02-02T17:45:41.309Z,1.20
2023-02-02T17:48:13.030Z,0.90
2023-02-02T17:50:42.877Z,0.82
2023-02-02T17:55:43.871Z,0.55
2023-02-02T17:58:17.077Z,0.80
2023-02-02T18:00:47.791Z,0.90
2023-02-02T18:03:20.259Z,0.90
2023-02-02T18:05:49.308Z,0.85
2023-02-02T18:08:18.037Z,0.80
2023-02-02T18:10:48.146Z,0.70
2023-02-02T18:13:19.208Z,0.77
2023-02-02T18:15:48.350Z,0.60
2023-02-02T18:18:17.738Z,0.85
2023-02-02T18:20:49.674Z,0.70
2023-02-02T18:23:20.053Z,0.60
2023-02-02T18:25:50.082Z,0.50
2023-02-02T18:28:18.777Z,0.73
2023-02-02T18:30:48.263Z,0.70
2023-02-02T18:33:19.972Z,0.63
2023-02-02T18:35:49.518Z,0.40
2023-02-02T18:38:18.269Z,0.70
2023-02-02T18:40:46.906Z,0.57
2023-02-02T18:43:16.928Z,0.60
2023-02-02T18:45:45.449Z,0.60
2023-02-02T18:48:14.227Z,0.57
2023-02-02T18:50:42.856Z,0.70
2023-02-02T18:53:11.544Z,0.50
2023-02-02T18:55:40.185Z,0.60
2023-02-02T18:58:10.805Z,0.60
2023-02-02T19:00:40.952Z,0.65
2023-02-02T19:03:09.633Z,0.60
2023-02-02T19:05:55.773Z,0.50
2023-02-02T19:08:24.434Z,0.52
2023-02-02T19:11:00.452Z,0.80
2023-02-02T19:13:30.018Z,0.50
2023-02-02T19:16:01.745Z,0.60
2023-02-02T19:18:33.455Z,0.80
2023-02-02T19:21:02.028Z,0.82
2023-02-02T19:23:32.338Z,0.57
2023-02-02T19:26:01.281Z,0.70
2023-02-02T19:28:31.318Z,0.47
2023-02-02T19:31:02.872Z,0.50
2023-02-02T19:33:39.042Z,0.75
2023-02-02T19:36:14.396Z,0.60
2023-02-02T19:38:45.258Z,1.10
2023-02-02T19:41:21.002Z,0.77
2023-02-02T19:43:50.508Z,0.60
2023-02-02T19:46:22.887Z,0.77
2023-02-02T19:48:54.781Z,0.57
2023-02-02T19:51:38.885Z,0.50
2023-02-02T19:54:27.992Z,0.90
2023-02-02T19:56:59.754Z,0.50
2023-02-02T19:59:33.550Z,1.00
2023-02-02T20:02:34.424Z,0.40
2023-02-02T20:05:08.328Z,1.08
2023-02-02T20:07:36.991Z,0.73
2023-02-02T20:10:18.855Z,0.80
2023-02-02T20:12:48.869Z,0.57
2023-02-02T20:15:29.765Z,0.63
2023-02-02T20:18:01.603Z,0.73
2023-02-02T20:20:33.809Z,0.82
2023-02-02T20:23:02.415Z,0.73
2023-02-02T20:25:32.554Z,0.60
2023-02-02T20:28:08.535Z,0.75
2023-02-02T20:30:37.006Z,0.80
2023-02-02T20:33:22.183Z,0.57
2023-02-02T20:35:50.675Z,0.60
2023-02-02T20:38:23.746Z,0.40
2023-02-02T20:40:52.653Z,0.70
2023-02-02T20:43:21.780Z,0.73
2023-02-02T20:45:51.109Z,0.68
2023-02-02T20:48:21.285Z,0.70
2023-02-02T20:50:50.159Z,0.70
2023-02-02T20:53:19.236Z,0.88
2023-02-02T20:55:47.967Z,0.75
2023-02-02T20:58:16.452Z,0.75
2023-02-02T21:00:45.197Z,0.50
2023-02-02T21:03:14.312Z,0.75
2023-02-02T21:05:44.211Z,0.60
2023-02-02T21:08:12.774Z,0.50
2023-02-02T21:10:41.306Z,0.57
2023-02-02T21:13:09.942Z,0.75
2023-02-02T21:15:38.697Z,0.70
2023-02-02T21:18:07.895Z,0.40
2023-02-02T21:20:36.446Z,0.70
2023-02-02T21:23:06.330Z,0.80
2023-02-02T21:25:35.137Z,0.82
2023-02-02T21:28:03.664Z,0.65
2023-02-02T21:30:32.499Z,0.70
2023-02-02T21:33:01.171Z,0.70
2023-02-02T21:35:29.698Z,0.85
2023-02-02T21:38:01.971Z,0.35
2023-02-02T21:40:34.635Z,0.60
2023-02-02T21:43:17.288Z,0.65
2023-02-02T21:45:50.105Z,0.68
2023-02-02T21:48:31.847Z,0.80
2023-02-02T21:51:17.702Z,1.13
2023-02-02T21:53:46.162Z,0.65
2023-02-02T21:56:26.973Z,0.80
2023-02-02T21:59:00.601Z,0.65
2023-02-02T22:01:35.656Z,0.70
2023-02-02T22:04:04.537Z,0.75
2023-02-02T22:06:37.077Z,0.90
2023-02-02T22:09:17.060Z,0.50
2023-02-02T22:14:22.638Z,0.73
2023-02-02T22:16:53.916Z,0.40
2023-02-02T22:19:32.822Z,0.60
2023-02-02T22:22:19.342Z,0.63
2023-02-02T22:24:53.473Z,0.50
2023-02-02T22:27:26.071Z,0.50
2023-02-02T22:29:59.306Z,0.60
2023-02-02T22:32:28.263Z,0.65
2023-02-02T22:34:57.230Z,0.50
2023-02-02T22:37:26.221Z,0.50
2023-02-02T22:39:55.070Z,1.08
2023-02-02T22:42:25.503Z,0.55
2023-02-02T22:44:54.560Z,0.50
2023-02-02T22:47:23.167Z,0.88
2023-02-02T22:49:51.607Z,0.35
2023-02-02T22:52:20.580Z,0.60
2023-02-02T22:54:49.068Z,0.50
2023-02-02T22:57:17.914Z,0.50
2023-02-02T22:59:48.190Z,0.40
2023-02-02T23:02:17.040Z,0.40
2023-02-02T23:04:45.675Z,0.50
2023-02-02T23:07:14.209Z,0.52
2023-02-02T23:09:43.002Z,0.57
2023-02-02T23:12:11.745Z,0.60
2023-02-02T23:14:40.747Z,0.68
2023-02-02T23:17:10.915Z,0.57
2023-02-02T23:19:39.939Z,0.73
2023-02-02T23:22:08.387Z,0.45
2023-02-02T23:24:37.201Z,0.70
2023-02-02T23:27:07.333Z,0.80
2023-02-02T23:29:36.104Z,0.95
2023-02-02T23:32:05.167Z,0.60
2023-02-02T23:34:35.478Z,0.80
2023-02-02T23:37:03.962Z,0.60
2023-02-02T23:39:32.699Z,0.73
2023-02-02T23:42:01.288Z,0.40
2023-02-02T23:44:30.132Z,0.77
2023-02-02T23:46:59.685Z,0.70
2023-02-02T23:49:28.496Z,0.57
2023-02-02T23:51:58.494Z,0.60
2023-02-02T23:54:28.042Z,0.90
2023-02-02T23:56:58.926Z,0.85
2023-02-02T23:59:28.008Z,0.98
